Time;durP1;ratioP1;P1;durP2;ratioP2;P2;SDS_P1;SDS_P2;PMS_P1;PMS_P2;Temp;Humidity;BMP_temperature;BMP_pressure;BME280_temperature;BME280_humidity;BME280_pressure;Samples;Min_cycle;Max_cycle;Signal;HPM_P1;HPM_P2
2022/01/30 00:00:07;;;;;;;;;;;;;;;17.98;61.39;101421.25;4997948;28;1064;-61
2022/01/30 00:02:35;;;;;;;;;;;;;;;18.00;61.70;101415.81;5007799;28;1914;-69
2022/01/30 00:05:01;;;;;;;;;;;;;;;17.98;61.23;101396.34;5008458;28;1612;-60
2022/01/30 00:07:28;;;;;;;;;;;;;;;18.01;60.59;101396.97;5011204;28;1488;-60
2022/01/30 00:09:54;;;;;;;;;;;;;;;17.97;60.86;101386.63;5012122;28;1758;-62
2022/01/30 00:12:29;;;;;;;;;;;;;;;18.00;60.99;101391.72;5009771;28;1448;-67
2022/01/30 00:14:56;;;;;;;;;;;;;;;18.00;61.03;101389.88;5005688;28;1455;-67
2022/01/30 00:17:29;;;;;;;;;;;;;;;17.99;60.75;101385.53;5014278;28;1505;-60
2022/01/30 00:20:01;;;;;;;;;;;;;;;17.99;60.70;101369.47;4998056;28;996;-60
2022/01/30 00:22:40;;;;;;;;;;;;;;;17.97;60.51;101373.22;5010509;28;1617;-67
2022/01/30 00:25:14;;;;;;;;;;;;;;;17.99;60.76;101380.16;5004904;28;1570;-67
2022/01/30 00:27:48;;;;;;;;;;;;;;;18.01;60.66;101364.84;5010032;28;1734;-60
2022/01/30 00:30:16;;;;;;;;;;;;;;;18.05;60.35;101365.47;5003312;28;1965;-60
2022/01/30 00:32:43;;;;;;;;;;;;;;;18.03;60.82;101362.06;5016008;28;1727;-60
2022/01/30 00:35:11;;;;;;;;;;;;;;;18.02;60.75;101355.00;5006971;28;1580;-61
2022/01/30 00:37:40;;;;;;;;;;;;;;;18.00;60.68;101362.28;5004673;28;1440;-60
2022/01/30 00:40:08;;;;;;;;;;;;;;;17.97;60.65;101370.56;5007440;28;1616;-60
2022/01/30 00:42:34;;;;;;;;;;;;;;;17.95;60.74;101351.09;5008169;28;1222;-66
2022/01/30 00:45:01;;;;;;;;;;;;;;;17.97;60.75;101355.34;5009506;28;1906;-67
2022/01/30 00:47:27;;;;;;;;;;;;;;;17.96;60.90;101347.44;5006976;28;1655;-67
2022/01/30 00:49:54;;;;;;;;;;;;;;;17.94;60.99;101346.69;5007841;28;1567;-60
2022/01/30 00:52:23;;;;;;;;;;;;;;;17.93;60.98;101331.63;5012031;28;1496;-60
2022/01/30 00:54:50;;;;;;;;;;;;;;;17.91;61.05;101341.59;5004704;28;1065;-60
2022/01/30 00:57:16;;;;;;;;;;;;;;;17.91;60.76;101330.88;5009419;28;1723;-60
2022/01/30 00:59:43;;;;;;;;;;;;;;;17.96;60.59;101334.88;5008077;28;1739;-63
2022/01/30 01:02:10;;;;;;;;;;;;;;;17.95;60.52;101327.00;5009010;28;1588;-61
2022/01/30 01:04:36;;;;;;;;;;;;;;;17.96;60.65;101312.63;5006368;28;1976;-62
2022/01/30 01:07:03;;;;;;;;;;;;;;;17.95;60.59;101317.16;5006991;28;1321;-61
2022/01/30 01:09:36;;;;;;;;;;;;;;;17.94;60.71;101310.06;5004722;28;1580;-60
2022/01/30 01:12:34;;;;;;;;;;;;;;;17.94;60.53;101304.72;5008605;28;1397;-60
2022/01/30 01:23:28;;;;;;;;;;;;;;;17.87;60.37;101299.00;5009682;28;1913;-60
2022/01/30 01:25:57;;;;;;;;;;;;;;;17.91;60.37;101285.41;5007223;28;1623;-67
2022/01/30 01:28:23;;;;;;;;;;;;;;;17.91;60.33;101282.72;5006759;28;1317;-67
2022/01/30 01:30:50;;;;;;;;;;;;;;;17.92;60.32;101268.34;5005983;28;1051;-67
2022/01/30 01:33:18;;;;;;;;;;;;;;;17.86;60.23;101270.50;5010193;28;1805;-60
2022/01/30 01:35:44;;;;;;;;;;;;;;;17.85;60.34;101258.13;5006671;28;1506;-67
2022/01/30 01:38:12;;;;;;;;;;;;;;;17.82;60.39;101250.28;5007219;28;1575;-67
2022/01/30 01:40:39;;;;;;;;;;;;;;;17.88;60.42;101249.00;5007550;28;1580;-67
2022/01/30 01:43:08;;;;;;;;;;;;;;;17.85;60.29;101242.06;5010243;28;1906;-66
2022/01/30 01:45:38;;;;;;;;;;;;;;;17.94;59.98;101258.38;5006780;28;1041;-61
2022/01/30 01:48:12;;;;;;;;;;;;;;;17.87;59.94;101249.97;5009829;28;1667;-68
2022/01/30 01:50:39;;;;;;;;;;;;;;;17.87;60.13;101240.13;5005529;28;1643;-64
2022/01/30 01:53:07;;;;;;;;;;;;;;;17.89;60.22;101238.19;5008440;28;1416;-68
2022/01/30 01:55:33;;;;;;;;;;;;;;;17.84;60.34;101218.94;5005617;28;1640;-71
2022/01/30 01:58:00;;;;;;;;;;;;;;;17.86;60.38;101230.38;5009620;28;1613;-67
2022/01/30 02:00:28;;;;;;;;;;;;;;;17.86;60.10;101218.84;5006206;28;1478;-72
2022/01/30 02:02:55;;;;;;;;;;;;;;;17.84;60.18;101213.59;4998550;28;1668;-70
2022/01/30 02:05:23;;;;;;;;;;;;;;;17.80;60.30;101212.09;5007649;28;1898;-66
2022/01/30 02:08:14;;;;;;;;;;;;;;;17.79;60.24;101194.34;5012718;28;1540;-70
2022/01/30 02:10:51;;;;;;;;;;;;;;;17.78;59.83;101208.69;5013127;28;1524;-67
2022/01/30 02:24:47;;;;;;;;;;;;;;;17.83;59.75;101171.78;5009703;28;1969;-71
2022/01/30 02:27:17;;;;;;;;;;;;;;;17.78;59.45;101176.56;5001945;28;1431;-69
2022/01/30 02:29:43;;;;;;;;;;;;;;;17.80;59.69;101163.94;5006231;28;1420;-70
2022/01/30 02:32:10;;;;;;;;;;;;;;;17.78;60.27;101157.84;5010528;28;1652;-70
2022/01/30 02:34:36;;;;;;;;;;;;;;;17.82;59.74;101156.66;5004506;28;1029;-70
2022/01/30 02:37:03;;;;;;;;;;;;;;;17.82;59.32;101158.47;5003807;28;1626;-72
2022/01/30 02:39:30;;;;;;;;;;;;;;;17.83;59.62;101174.44;5010703;28;1467;-71
2022/01/30 02:41:58;;;;;;;;;;;;;;;17.82;59.60;101163.81;5002568;28;1711;-71
2022/01/30 02:44:29;;;;;;;;;;;;;;;17.87;59.52;101157.19;5008124;28;1977;-72
2022/01/30 02:47:00;;;;;;;;;;;;;;;18.10;58.72;101143.84;4998350;28;1276;-71
2022/01/30 02:49:45;;;;;;;;;;;;;;;18.34;58.01;101149.06;5010518;28;968;-71
2022/01/30 02:52:14;;;;;;;;;;;;;;;18.54;57.67;101141.28;5013639;28;1027;-71
2022/01/30 02:54:40;;;;;;;;;;;;;;;18.64;57.79;101132.41;5012992;28;1724;-68
2022/01/30 02:57:08;;;;;;;;;;;;;;;18.71;57.43;101123.84;5013382;28;1786;-68
2022/01/30 02:59:35;;;;;;;;;;;;;;;18.75;57.60;101119.94;5007636;28;1507;-68
2022/01/30 03:02:02;;;;;;;;;;;;;;;18.76;56.95;101124.31;5010380;28;1500;-59
2022/01/30 03:04:28;;;;;;;;;;;;;;;18.76;57.67;101114.47;5010746;28;1922;-60
2022/01/30 03:06:56;;;;;;;;;;;;;;;18.73;57.13;101108.50;5016270;28;1767;-67
2022/01/30 03:09:22;;;;;;;;;;;;;;;18.68;57.61;101109.72;5012837;28;1568;-60
2022/01/30 03:11:49;;;;;;;;;;;;;;;18.63;57.44;101108.41;5011218;28;1392;-62
2022/01/30 03:14:17;;;;;;;;;;;;;;;18.57;57.86;101099.03;5011487;28;1470;-62
2022/01/30 03:16:44;;;;;;;;;;;;;;;18.49;58.16;101099.66;5001579;28;1091;-61
2022/01/30 03:19:11;;;;;;;;;;;;;;;18.45;57.84;101087.47;5012989;28;1656;-61
2022/01/30 03:21:37;;;;;;;;;;;;;;;18.40;57.88;101075.44;5006805;28;1727;-61
2022/01/30 03:24:04;;;;;;;;;;;;;;;18.37;58.23;101078.38;5012829;28;1977;-61
2022/01/30 03:26:36;;;;;;;;;;;;;;;18.31;58.14;101077.03;5008677;28;1528;-61
2022/01/30 03:29:06;;;;;;;;;;;;;;;18.26;57.74;101064.03;5004982;28;1502;-61
2022/01/30 03:31:34;;;;;;;;;;;;;;;18.24;57.89;101065.13;5012838;28;1227;-68
2022/01/30 03:34:00;;;;;;;;;;;;;;;18.22;58.06;101067.94;5010357;28;1530;-61
2022/01/30 03:36:27;;;;;;;;;;;;;;;18.17;58.33;101058.56;5007033;28;1578;-67
2022/01/30 03:38:54;;;;;;;;;;;;;;;18.14;58.06;101048.94;5011364;28;1384;-68
2022/01/30 03:41:20;;;;;;;;;;;;;;;18.10;58.17;101060.88;5010609;28;1473;-61
2022/01/30 03:43:47;;;;;;;;;;;;;;;18.14;58.25;101058.81;5010373;28;1906;-61
2022/01/30 03:46:13;;;;;;;;;;;;;;;18.08;58.06;101049.44;5009739;28;1066;-64
2022/01/30 03:48:41;;;;;;;;;;;;;;;18.12;57.83;101050.03;5009188;28;1807;-62
2022/01/30 03:51:08;;;;;;;;;;;;;;;18.02;58.14;101048.09;5010589;28;1588;-60
2022/01/30 03:53:35;;;;;;;;;;;;;;;17.96;58.25;101029.00;5011932;28;1381;-69
2022/01/30 03:56:01;;;;;;;;;;;;;;;17.97;58.25;101044.94;5008131;28;1469;-62
2022/01/30 03:58:28;;;;;;;;;;;;;;;17.95;58.08;101028.16;5014088;28;1369;-62
2022/01/30 04:00:54;;;;;;;;;;;;;;;17.98;57.82;101035.09;5015209;28;1307;-62
2022/01/30 04:03:21;;;;;;;;;;;;;;;18.10;57.64;101023.41;5011986;28;1718;-64
2022/01/30 04:05:49;;;;;;;;;;;;;;;18.11;58.06;101008.22;5007733;28;1906;-66
2022/01/30 04:08:16;;;;;;;;;;;;;;;18.04;58.00;101010.50;5008311;28;1533;-69
2022/01/30 04:10:43;;;;;;;;;;;;;;;18.10;58.38;101031.44;5009370;28;1273;-67
2022/01/30 04:13:10;;;;;;;;;;;;;;;18.15;58.27;101002.47;5006424;28;1388;-63
2022/01/30 04:15:37;;;;;;;;;;;;;;;18.19;58.17;100998.56;5008993;28;970;-62
2022/01/30 04:18:03;;;;;;;;;;;;;;;18.20;57.83;100994.91;5014558;28;1503;-68
2022/01/30 04:20:30;;;;;;;;;;;;;;;18.22;58.05;100979.59;5007665;28;1469;-63
2022/01/30 04:22:58;;;;;;;;;;;;;;;18.23;57.66;100967.91;5008502;28;1412;-64
2022/01/30 04:25:25;;;;;;;;;;;;;;;18.26;57.91;100965.00;5010828;28;1906;-68
2022/01/30 04:27:52;;;;;;;;;;;;;;;18.25;58.11;100970.47;5009268;28;1604;-68
2022/01/30 04:30:19;;;;;;;;;;;;;;;18.21;57.40;100951.13;5004360;28;1361;-61
2022/01/30 04:32:46;;;;;;;;;;;;;;;18.23;57.54;100946.50;5001002;28;1574;-65
2022/01/30 04:35:17;;;;;;;;;;;;;;;18.23;58.03;100945.66;5005237;28;1396;-60
2022/01/30 04:37:57;;;;;;;;;;;;;;;18.20;58.28;100949.41;5006923;28;1631;-60
2022/01/30 04:54:43;;;;;;;;;;;;;;;18.15;58.08;100916.00;5006958;28;1372;-65
2022/01/30 04:57:17;;;;;;;;;;;;;;;18.12;57.90;100916.22;5006871;28;1718;-68
2022/01/30 04:59:52;;;;;;;;;;;;;;;18.08;57.96;100897.75;5012070;28;1742;-60
2022/01/30 05:02:40;;;;;;;;;;;;;;;18.07;57.74;100897.88;4998210;28;1551;-69
2022/01/30 05:05:34;;;;;;;;;;;;;;;18.11;57.88;100898.50;4999081;28;1910;-69
2022/01/30 05:07:57;;;;;;;;;;;;;;;18.06;58.03;100890.81;5007252;28;1365;-60
2022/01/30 05:10:24;;;;;;;;;;;;;;;18.08;57.87;100888.84;5006198;28;1638;-67
2022/01/30 05:12:55;;;;;;;;;;;;;;;18.05;57.97;100879.28;5006236;28;1588;-66
2022/01/30 05:15:22;;;;;;;;;;;;;;;18.08;58.28;100886.19;5001552;28;1013;-65
2022/01/30 05:17:49;;;;;;;;;;;;;;;18.11;58.13;100861.88;5013310;28;1495;-69
2022/01/30 05:20:16;;;;;;;;;;;;;;;17.95;57.81;100830.19;5007430;28;1469;-68
2022/01/30 05:22:42;;;;;;;;;;;;;;;18.16;57.68;100850.75;5007881;28;1069;-59
2022/01/30 05:25:09;;;;;;;;;;;;;;;18.17;57.59;100850.63;5003355;28;2329;-68
2022/01/30 05:27:36;;;;;;;;;;;;;;;18.15;58.03;100849.91;5005235;28;1534;-66
2022/01/30 05:30:05;;;;;;;;;;;;;;;18.14;57.90;100853.56;5009386;28;1367;-70
2022/01/30 05:32:32;;;;;;;;;;;;;;;18.37;57.41;100862.34;5002284;28;1527;-64
2022/01/30 05:34:59;;;;;;;;;;;;;;;18.99;57.38;100858.00;5005411;28;1564;-65
2022/01/30 05:37:26;;;;;;;;;;;;;;;19.23;55.59;100848.78;5007526;28;1564;-64
2022/01/30 05:39:53;;;;;;;;;;;;;;;19.30;55.72;100847.28;5006633;28;1577;-64
2022/01/30 05:42:19;;;;;;;;;;;;;;;19.38;54.90;100863.53;4996316;28;1020;-67
2022/01/30 05:44:54;;;;;;;;;;;;;;;19.56;54.51;100849.47;5007755;28;1981;-64
2022/01/30 05:47:26;;;;;;;;;;;;;;;19.67;55.04;100852.88;4997764;28;1594;-63
2022/01/30 05:49:53;;;;;;;;;;;;;;;19.68;54.80;100832.28;5008594;28;1300;-68
2022/01/30 05:52:21;;;;;;;;;;;;;;;19.64;56.43;100829.00;5011090;28;1307;-69
2022/01/30 05:54:48;;;;;;;;;;;;;;;19.59;57.87;100825.03;5011277;28;1359;-66
2022/01/30 05:57:15;;;;;;;;;;;;;;;20.21;55.58;100802.41;5010890;28;1723;-63
2022/01/30 05:59:41;;;;;;;;;;;;;;;20.22;54.25;100814.81;5012323;28;1354;-74
2022/01/30 06:02:08;;;;;;;;;;;;;;;19.88;56.25;100797.44;5011500;28;1539;-72
2022/01/30 06:04:36;;;;;;;;;;;;;;;19.76;56.24;100792.22;5009365;28;1975;-70
2022/01/30 06:07:02;;;;;;;;;;;;;;;19.77;55.78;100793.88;5007838;28;1781;-74
2022/01/30 06:09:29;;;;;;;;;;;;;;;19.77;55.53;100788.53;5009688;28;1492;-69
2022/01/30 06:11:56;;;;;;;;;;;;;;;20.16;54.88;100788.53;5013299;28;1366;-64
2022/01/30 06:14:23;;;;;;;;;;;;;;;20.18;54.60;100786.56;5010304;28;1452;-73
2022/01/30 06:16:50;;;;;;;;;;;;;;;19.74;55.25;100778.09;5009040;28;1466;-64
2022/01/30 06:19:18;;;;;;;;;;;;;;;19.85;55.17;100769.03;5008525;28;1507;-65
2022/01/30 06:21:47;;;;;;;;;;;;;;;19.99;55.37;100759.72;5009940;28;1515;-69
2022/01/30 06:24:13;;;;;;;;;;;;;;;19.69;56.30;100748.09;5007292;28;1525;-65
2022/01/30 06:26:40;;;;;;;;;;;;;;;19.51;55.74;100737.22;5011538;28;1903;-68
2022/01/30 06:29:06;;;;;;;;;;;;;;;19.43;56.09;100745.97;5009356;28;1781;-71
2022/01/30 06:31:33;;;;;;;;;;;;;;;19.44;56.30;100744.97;5006551;28;1357;-64
2022/01/30 06:33:59;;;;;;;;;;;;;;;19.37;56.70;100732.25;5008945;28;1335;-66
2022/01/30 06:36:26;;;;;;;;;;;;;;;19.37;56.65;100727.75;5010690;28;1251;-62
2022/01/30 06:38:54;;;;;;;;;;;;;;;19.19;57.77;100746.34;5009559;28;1393;-61
2022/01/30 06:41:21;;;;;;;;;;;;;;;19.07;57.65;100737.56;5007812;28;1421;-62
2022/01/30 06:43:47;;;;;;;;;;;;;;;19.04;57.75;100747.72;5009418;28;1421;-62
2022/01/30 06:46:15;;;;;;;;;;;;;;;19.04;57.94;100719.09;5007989;28;1907;-63
2022/01/30 06:48:42;;;;;;;;;;;;;;;19.04;58.23;100740.53;5007269;28;1526;-66
2022/01/30 06:51:08;;;;;;;;;;;;;;;19.04;58.28;100719.09;5011819;28;1408;-60
2022/01/30 06:53:35;;;;;;;;;;;;;;;18.97;58.65;100723.28;5012170;28;1749;-61
2022/01/30 06:56:03;;;;;;;;;;;;;;;18.89;58.17;100707.03;5010999;28;1375;-61
2022/01/30 06:58:30;;;;;;;;;;;;;;;18.88;58.57;100714.25;5009185;28;1471;-62
2022/01/30 07:00:56;;;;;;;;;;;;;;;18.90;58.20;100716.78;5009397;28;1412;-61
2022/01/30 07:03:23;;;;;;;;;;;;;;;18.87;58.17;100714.38;5010858;28;1480;-65
2022/01/30 07:05:49;;;;;;;;;;;;;;;18.90;58.23;100698.03;5009957;28;1910;-74
2022/01/30 07:08:16;;;;;;;;;;;;;;;19.08;57.83;100711.63;5010102;28;1485;-64
2022/01/30 07:10:43;;;;;;;;;;;;;;;19.08;57.79;100711.63;5009616;28;1339;-66
2022/01/30 07:13:12;;;;;;;;;;;;;;;19.12;57.92;100712.16;5012647;28;1424;-65
2022/01/30 07:15:41;;;;;;;;;;;;;;;19.15;57.82;100714.59;5007892;28;1432;-69
2022/01/30 07:18:07;;;;;;;;;;;;;;;19.05;57.23;100718.09;5008424;28;1368;-64
2022/01/30 07:20:34;;;;;;;;;;;;;;;19.03;56.94;100717.38;5008989;28;1447;-64
2022/01/30 07:23:01;;;;;;;;;;;;;;;19.04;57.72;100716.41;5008369;28;1495;-60
2022/01/30 07:25:27;;;;;;;;;;;;;;;19.01;57.33;100694.38;5010650;28;1969;-68
2022/01/30 07:27:54;;;;;;;;;;;;;;;19.03;58.72;100693.25;5010077;28;1763;-64
2022/01/30 07:30:21;;;;;;;;;;;;;;;19.12;58.05;100693.41;5007996;28;1573;-68
2022/01/30 07:32:48;;;;;;;;;;;;;;;19.11;57.84;100705.97;5006503;28;1333;-63
2022/01/30 07:35:15;;;;;;;;;;;;;;;19.13;57.31;100703.16;5011070;28;1386;-61
2022/01/30 07:37:41;;;;;;;;;;;;;;;19.15;57.46;100685.09;5012539;28;1409;-61
2022/01/30 07:40:08;;;;;;;;;;;;;;;19.12;58.11;100690.72;5012027;28;1257;-61
2022/01/30 07:42:35;;;;;;;;;;;;;;;19.12;57.54;100678.19;5015708;28;1500;-60
2022/01/30 07:45:04;;;;;;;;;;;;;;;19.11;58.12;100678.31;5012321;28;1906;-64
2022/01/30 07:47:32;;;;;;;;;;;;;;;19.14;57.43;100678.03;5007894;28;1366;-65
2022/01/30 07:49:59;;;;;;;;;;;;;;;19.16;57.91;100662.66;5013040;28;1471;-65
2022/01/30 07:52:25;;;;;;;;;;;;;;;19.15;57.51;100658.28;5011350;28;1460;-66
2022/01/30 07:54:52;;;;;;;;;;;;;;;19.18;57.65;100663.38;5012206;28;1447;-66
2022/01/30 07:57:19;;;;;;;;;;;;;;;19.27;56.95;100662.53;5011891;28;1894;-58
2022/01/30 07:59:46;;;;;;;;;;;;;;;19.24;57.65;100649.44;5014000;28;1467;-59
2022/01/30 08:02:12;;;;;;;;;;;;;;;19.22;57.75;100633.47;5008339;28;1408;-60
2022/01/30 08:04:40;;;;;;;;;;;;;;;19.12;59.09;100637.13;5013573;28;1472;-60
2022/01/30 08:07:07;;;;;;;;;;;;;;;19.16;58.38;100633.16;5013833;28;1902;-68
2022/01/30 08:09:34;;;;;;;;;;;;;;;19.05;58.53;100626.97;5010691;28;1612;-60
2022/01/30 08:12:00;;;;;;;;;;;;;;;19.12;58.02;100637.13;5011112;28;1381;-69
2022/01/30 08:14:27;;;;;;;;;;;;;;;19.10;57.18;100665.91;5014141;28;1393;-60
2022/01/30 08:16:54;;;;;;;;;;;;;;;19.12;57.87;100638.00;5010873;28;1482;-60
2022/01/30 08:19:23;;;;;;;;;;;;;;;19.13;57.95;100628.09;5012686;28;1405;-60
2022/01/30 08:21:51;;;;;;;;;;;;;;;19.11;57.27;100614.00;5011783;28;1376;-61
2022/01/30 08:24:19;;;;;;;;;;;;;;;19.14;56.94;100617.25;5013121;28;1402;-62
2022/01/30 08:26:46;;;;;;;;;;;;;;;19.19;57.00;100606.09;5011356;28;2068;-60
2022/01/30 08:29:12;;;;;;;;;;;;;;;19.11;56.97;100627.41;5013501;28;1393;-68
2022/01/30 08:31:39;;;;;;;;;;;;;;;19.14;57.39;100598.50;5009440;28;1696;-67
2022/01/30 08:34:05;;;;;;;;;;;;;;;19.22;56.98;100605.84;5012803;28;1496;-63
2022/01/30 08:36:32;;;;;;;;;;;;;;;19.26;57.13;100602.72;5011586;28;1473;-62
2022/01/30 08:39:00;;;;;;;;;;;;;;;19.25;56.79;100589.44;5012511;28;1694;-64
2022/01/30 08:41:26;;;;;;;;;;;;;;;19.22;56.73;100579.03;4999652;28;1587;-67
2022/01/30 08:43:53;;;;;;;;;;;;;;;19.22;56.04;100579.03;5000179;28;1528;-69
2022/01/30 08:46:20;;;;;;;;;;;;;;;19.25;55.85;100570.69;4999512;28;1910;-63
2022/01/30 08:48:47;;;;;;;;;;;;;;;19.30;56.03;100571.13;4998546;28;1277;-63
2022/01/30 08:51:14;;;;;;;;;;;;;;;19.40;55.36;100566.59;5000663;28;1508;-65
2022/01/30 08:53:41;;;;;;;;;;;;;;;19.49;54.98;100564.88;5004350;28;1635;-67
2022/01/30 08:56:09;;;;;;;;;;;;;;;19.53;54.79;100560.06;5001269;28;1457;-64
2022/01/30 08:58:35;;;;;;;;;;;;;;;19.37;57.19;100566.84;5000632;28;1428;-65
2022/01/30 09:01:02;;;;;;;;;;;;;;;19.35;56.89;100571.50;4999602;28;1778;-67
2022/01/30 09:03:28;;;;;;;;;;;;;;;19.29;56.29;100564.03;4996999;28;1363;-67
2022/01/30 09:05:55;;;;;;;;;;;;;;;19.30;56.83;100559.53;4998887;28;1973;-65
2022/01/30 09:08:21;;;;;;;;;;;;;;;19.25;56.82;100549.22;5000023;28;1389;-64
2022/01/30 09:10:49;;;;;;;;;;;;;;;19.21;57.69;100554.03;4995841;28;1278;-65
2022/01/30 09:13:17;;;;;;;;;;;;;;;19.17;57.44;100541.91;4996622;28;1354;-65
2022/01/30 09:15:44;;;;;;;;;;;;;;;19.15;57.44;100518.91;4996074;28;1409;-65
2022/01/30 09:18:13;;;;;;;;;;;;;;;19.17;57.14;100527.66;4995744;28;1373;-65
2022/01/30 09:20:40;;;;;;;;;;;;;;;19.30;56.77;100522.00;5001280;28;1397;-63
2022/01/30 09:23:07;;;;;;;;;;;;;;;19.21;56.69;100523.69;4998881;28;1341;-64
2022/01/30 09:25:33;;;;;;;;;;;;;;;19.19;56.73;100520.31;4996597;28;1906;-67
2022/01/30 09:28:00;;;;;;;;;;;;;;;19.14;57.32;100506.50;5004321;28;1536;-71
2022/01/30 09:30:28;;;;;;;;;;;;;;;19.12;57.13;100503.09;5011624;28;1769;-70
2022/01/30 09:32:54;;;;;;;;;;;;;;;19.10;56.92;100497.03;5011879;28;1373;-66
2022/01/30 09:35:21;;;;;;;;;;;;;;;19.21;57.00;100484.31;5001770;28;1546;-58
2022/01/30 09:37:48;;;;;;;;;;;;;;;19.21;56.89;100483.50;5000050;28;1757;-59
2022/01/30 09:40:17;;;;;;;;;;;;;;;19.26;56.36;100462.47;5003272;28;1502;-58
2022/01/30 09:42:45;;;;;;;;;;;;;;;19.13;57.37;100459.25;4997637;28;1972;-64
2022/01/30 09:45:12;;;;;;;;;;;;;;;19.17;57.16;100455.28;5002417;28;1234;-58
2022/01/30 09:47:40;;;;;;;;;;;;;;;19.15;57.43;100457.25;5001419;28;1906;-58
2022/01/30 09:50:08;;;;;;;;;;;;;;;19.15;57.19;100425.09;5000254;28;1398;-57
2022/01/30 09:52:36;;;;;;;;;;;;;;;19.21;56.77;100429.88;4997667;28;1350;-62
2022/01/30 09:55:03;;;;;;;;;;;;;;;19.18;57.13;100408.72;5001567;28;1381;-61
2022/01/30 09:57:29;;;;;;;;;;;;;;;19.22;57.60;100429.75;5001056;28;1998;-63
2022/01/30 09:59:56;;;;;;;;;;;;;;;19.31;57.83;100424.50;5003934;28;1718;-64
2022/01/30 10:02:25;;;;;;;;;;;;;;;19.27;57.23;100405.16;5004594;28;1401;-60
2022/01/30 10:04:54;;;;;;;;;;;;;;;19.25;58.62;100399.09;5000644;28;1342;-63
2022/01/30 10:07:25;;;;;;;;;;;;;;;19.21;57.91;100389.66;5003031;28;1975;-64
2022/01/30 10:09:52;;;;;;;;;;;;;;;19.28;58.06;100372.84;5006625;28;1377;-58
2022/01/30 10:12:20;;;;;;;;;;;;;;;19.17;58.49;100377.56;5008540;28;1781;-64
2022/01/30 10:14:51;;;;;;;;;;;;;;;19.14;59.30;100386.75;5011854;28;1312;-60
2022/01/30 10:17:31;;;;;;;;;;;;;;;19.20;58.35;100383.47;5011756;28;1340;-65
2022/01/30 10:20:07;;;;;;;;;;;;;;;19.16;58.83;100392.81;5014079;28;1297;-64
2022/01/30 10:22:36;;;;;;;;;;;;;;;19.18;58.64;100395.31;5013811;28;1802;-63
2022/01/30 10:25:03;;;;;;;;;;;;;;;19.19;58.32;100391.66;5013682;28;1425;-60
2022/01/30 10:27:32;;;;;;;;;;;;;;;19.31;57.55;100406.56;5012570;28;1907;-59
2022/01/30 10:30:00;;;;;;;;;;;;;;;19.33;58.03;100377.78;5012764;28;1441;-61
2022/01/30 10:32:27;;;;;;;;;;;;;;;19.29;57.83;100392.47;5012288;28;1552;-61
2022/01/30 10:34:57;;;;;;;;;;;;;;;19.34;57.75;100400.06;5011629;28;1515;-61
2022/01/30 10:37:25;;;;;;;;;;;;;;;19.50;56.72;100388.69;5013610;28;1439;-62
2022/01/30 10:39:56;;;;;;;;;;;;;;;19.42;58.42;100393.00;5013762;28;1329;-63
2022/01/30 10:42:38;;;;;;;;;;;;;;;19.54;57.88;100395.50;5012891;28;1722;-63
2022/01/30 10:45:06;;;;;;;;;;;;;;;19.64;56.26;100386.38;5013219;28;1178;-60
2022/01/30 10:47:35;;;;;;;;;;;;;;;19.50;57.07;100381.53;5012290;28;1902;-65
2022/01/30 10:50:01;;;;;;;;;;;;;;;19.61;56.08;100367.06;5011221;28;1424;-60
2022/01/30 10:52:31;;;;;;;;;;;;;;;19.63;57.30;100362.38;5013135;28;1961;-59
2022/01/30 10:55:04;;;;;;;;;;;;;;;19.48;57.61;100349.47;5011724;28;1498;-60
2022/01/30 10:57:30;;;;;;;;;;;;;;;19.38;59.44;100363.94;5013331;28;1409;-59
2022/01/30 10:59:57;;;;;;;;;;;;;;;19.36;57.67;100345.31;5012791;28;1833;-61
2022/01/30 11:02:24;;;;;;;;;;;;;;;19.25;57.54;100349.00;5012008;28;1706;-61
2022/01/30 11:05:01;;;;;;;;;;;;;;;19.24;58.76;100346.50;5012974;28;1357;-61
2022/01/30 11:07:30;;;;;;;;;;;;;;;19.21;58.39;100330.69;5011648;28;1902;-61
2022/01/30 11:10:01;;;;;;;;;;;;;;;19.22;59.09;100317.16;5015610;28;1651;-60
2022/01/30 11:12:34;;;;;;;;;;;;;;;19.21;58.98;100304.72;5017826;28;1135;-61
2022/01/30 11:15:16;;;;;;;;;;;;;;;19.26;58.09;100328.44;5016724;28;1361;-61
2022/01/30 11:17:44;;;;;;;;;;;;;;;19.23;58.97;100313.47;5016320;28;1444;-59
2022/01/30 11:20:12;;;;;;;;;;;;;;;19.20;59.59;100294.16;5014286;28;1481;-61
2022/01/30 11:22:40;;;;;;;;;;;;;;;19.21;59.69;100283.28;5013425;28;1313;-60
2022/01/30 11:25:08;;;;;;;;;;;;;;;19.31;58.51;100275.19;5013343;28;1683;-60
2022/01/30 11:27:35;;;;;;;;;;;;;;;19.25;59.55;100262.41;5013471;28;1914;-60
2022/01/30 11:30:03;;;;;;;;;;;;;;;19.26;59.85;100272.13;5015256;28;1536;-60
2022/01/30 11:32:30;;;;;;;;;;;;;;;19.18;59.89;100254.13;5014005;28;1438;-58
2022/01/30 11:34:57;;;;;;;;;;;;;;;19.33;58.67;100267.84;5013239;28;1397;-63
2022/01/30 11:37:25;;;;;;;;;;;;;;;19.41;58.72;100262.56;5016262;28;1390;-59
2022/01/30 11:39:52;;;;;;;;;;;;;;;19.48;58.15;100231.50;5016134;28;1539;-59
2022/01/30 11:42:21;;;;;;;;;;;;;;;19.50;59.01;100243.88;5015103;28;1497;-61
2022/01/30 11:44:48;;;;;;;;;;;;;;;19.42;58.32;100216.00;5014727;28;1436;-59
2022/01/30 11:47:24;;;;;;;;;;;;;;;19.40;59.35;100218.00;5014024;28;1969;-59
2022/01/30 11:49:55;;;;;;;;;;;;;;;19.40;58.73;100218.00;5013012;28;1404;-59
2022/01/30 11:52:41;;;;;;;;;;;;;;;19.42;58.85;100191.88;5014707;28;1584;-58
2022/01/30 11:55:28;;;;;;;;;;;;;;;19.38;59.23;100166.38;5006085;28;2209;-59
2022/01/30 11:57:56;;;;;;;;;;;;;;;19.42;57.97;100170.44;5015187;28;1707;-59
2022/01/30 12:00:34;;;;;;;;;;;;;;;19.42;58.54;100154.34;5011288;28;1570;-59
2022/01/30 12:03:16;;;;;;;;;;;;;;;19.46;59.16;100174.50;5015075;28;1344;-59
2022/01/30 12:05:42;;;;;;;;;;;;;;;19.45;59.92;100159.38;5012101;28;1639;-59
2022/01/30 12:08:31;;;;;;;;;;;;;;;19.44;58.76;100151.50;5006987;28;1977;-59
2022/01/30 12:10:58;;;;;;;;;;;;;;;19.43;59.38;100155.19;5012864;28;1714;-59
2022/01/30 12:13:39;;;;;;;;;;;;;;;19.43;59.07;100156.00;5015239;28;1364;-59
2022/01/30 12:16:07;;;;;;;;;;;;;;;19.53;59.07;100142.53;5012918;28;2176;-59
2022/01/30 12:18:44;;;;;;;;;;;;;;;19.51;59.59;100132.97;5014399;28;1725;-60
2022/01/30 12:21:11;;;;;;;;;;;;;;;19.59;58.33;100141.06;5013511;28;1397;-59
2022/01/30 12:23:39;;;;;;;;;;;;;;;19.73;59.53;100153.97;5014578;28;1410;-62
2022/01/30 12:26:08;;;;;;;;;;;;;;;19.67;58.99;100141.13;5006057;28;1583;-57
2022/01/30 12:28:41;;;;;;;;;;;;;;;19.69;58.96;100157.91;5007690;28;1962;-61
2022/01/30 12:31:22;;;;;;;;;;;;;;;19.86;58.00;100165.13;5015047;28;1710;-62
2022/01/30 12:33:57;;;;;;;;;;;;;;;19.66;57.81;100152.88;5013888;28;1595;-62
2022/01/30 12:36:24;;;;;;;;;;;;;;;19.53;59.30;100126.44;5009411;28;1523;-60
2022/01/30 12:38:59;;;;;;;;;;;;;;;19.28;59.08;100144.16;5008749;28;1532;-62
2022/01/30 12:41:26;;;;;;;;;;;;;;;19.19;58.19;100153.09;5006282;28;1577;-59
2022/01/30 12:43:54;;;;;;;;;;;;;;;19.24;57.99;100148.13;5005995;28;1628;-60
2022/01/30 12:46:23;;;;;;;;;;;;;;;19.30;57.98;100134.13;5015924;28;1899;-62
2022/01/30 12:49:01;;;;;;;;;;;;;;;19.28;59.00;100136.13;5010657;28;1428;-62
2022/01/30 12:51:27;;;;;;;;;;;;;;;19.23;57.66;100147.28;5011352;28;1440;-59
2022/01/30 12:53:55;;;;;;;;;;;;;;;19.28;57.28;100142.31;5011744;28;1500;-64
2022/01/30 12:56:22;;;;;;;;;;;;;;;19.48;57.64;100150.22;5010512;28;1871;-59
2022/01/30 12:58:49;;;;;;;;;;;;;;;19.60;57.76;100153.50;5006301;28;1628;-64
2022/01/30 13:01:16;;;;;;;;;;;;;;;19.71;57.48;100155.94;5014614;28;1428;-56
2022/01/30 13:03:44;;;;;;;;;;;;;;;19.71;57.51;100142.53;5012362;28;1361;-56
2022/01/30 13:06:12;;;;;;;;;;;;;;;19.67;58.42;100125.03;5012328;28;1753;-63
2022/01/30 13:08:49;;;;;;;;;;;;;;;19.59;58.22;100120.44;5012646;28;1973;-63
2022/01/30 13:11:18;;;;;;;;;;;;;;;19.76;57.68;100134.88;5013172;28;1400;-66
2022/01/30 13:13:55;;;;;;;;;;;;;;;19.66;58.75;100136.78;5014151;28;1413;-59
2022/01/30 13:16:21;;;;;;;;;;;;;;;19.59;59.03;100143.75;5013948;28;1439;-64
2022/01/30 13:18:48;;;;;;;;;;;;;;;19.70;58.66;100142.69;5013912;28;1325;-67
2022/01/30 13:21:21;;;;;;;;;;;;;;;19.68;59.32;100156.25;5013880;28;1460;-64
2022/01/30 13:23:47;;;;;;;;;;;;;;;19.67;58.38;100157.22;5011628;28;1364;-60
2022/01/30 13:26:27;;;;;;;;;;;;;;;19.66;58.51;100144.84;5013575;28;1500;-65
2022/01/30 13:28:54;;;;;;;;;;;;;;;19.53;58.19;100133.66;5011976;28;1899;-60